createdAt,value
2019-03-18T00:03:44.089Z,3.50
2019-03-18T00:08:45.560Z,3.60
2019-03-18T00:13:47.067Z,3.60
2019-03-18T00:18:48.403Z,3.60
2019-03-18T00:23:49.983Z,3.50
2019-03-18T00:28:51.326Z,3.60
2019-03-18T00:33:52.746Z,3.50
2019-03-18T00:38:54.051Z,3.50
2019-03-18T00:43:55.465Z,3.60
2019-03-18T00:48:57.101Z,3.60
2019-03-18T00:54:00.349Z,3.70
2019-03-18T00:59:03.051Z,3.80
2019-03-18T01:04:04.585Z,3.80
2019-03-18T01:09:06.195Z,3.90
2019-03-18T01:14:07.672Z,3.90
2019-03-18T01:19:10.245Z,4.00
2019-03-18T01:24:11.923Z,4.00
2019-03-18T01:29:13.377Z,4.10
2019-03-18T01:34:15.270Z,4.10
2019-03-18T01:39:19.454Z,4.20
2019-03-18T01:44:20.804Z,4.30
2019-03-18T01:49:25.120Z,4.30
2019-03-18T01:54:30.196Z,4.30
2019-03-18T01:59:32.891Z,4.40
2019-03-18T02:04:34.637Z,4.40
2019-03-18T02:09:36.085Z,4.40
2019-03-18T02:14:38.709Z,4.40
2019-03-18T02:19:41.915Z,4.50
2019-03-18T02:24:43.378Z,4.50
2019-03-18T02:29:44.727Z,4.50
2019-03-18T02:34:46.927Z,4.60
2019-03-18T02:39:50.917Z,4.60
2019-03-18T02:44:52.619Z,4.60
2019-03-18T02:49:54.073Z,4.70
2019-03-18T02:54:55.735Z,4.70
2019-03-18T02:59:57.044Z,4.80
2019-03-18T03:04:58.579Z,4.80
2019-03-18T03:10:00.067Z,4.70
2019-03-18T03:15:03.630Z,4.60
2019-03-18T03:20:08.651Z,4.50
2019-03-18T03:25:10.805Z,4.40
2019-03-18T03:30:13.677Z,4.40
2019-03-18T03:35:15.325Z,4.30
2019-03-18T03:40:17.682Z,4.30
2019-03-18T03:45:19.115Z,4.30
2019-03-18T03:50:20.621Z,4.30
2019-03-18T03:55:22.014Z,4.30
2019-03-18T04:00:23.357Z,4.40
2019-03-18T04:05:30.023Z,4.50
2019-03-18T04:10:33.348Z,4.60
2019-03-18T04:15:36.449Z,4.60
2019-03-18T04:20:39.235Z,4.60
2019-03-18T04:25:43.150Z,4.50
2019-03-18T04:30:44.698Z,4.40
2019-03-18T04:35:46.072Z,4.40
2019-03-18T04:40:47.885Z,4.30
2019-03-18T04:45:50.202Z,4.30
2019-03-18T04:50:51.584Z,4.30
2019-03-18T04:55:53.107Z,4.20
2019-03-18T05:00:54.749Z,4.10
2019-03-18T05:05:56.245Z,4.00
2019-03-18T05:10:57.609Z,3.80
2019-03-18T05:15:59.181Z,3.80
2019-03-18T05:21:01.406Z,3.60
2019-03-18T05:26:03.113Z,3.60
2019-03-18T05:31:04.555Z,3.50
2019-03-18T05:36:06.080Z,3.60
2019-03-18T05:41:07.649Z,3.70
2019-03-18T05:46:09.102Z,3.90
2019-03-18T05:51:10.433Z,4.00
2019-03-18T05:56:12.026Z,4.10
2019-03-18T06:01:13.840Z,4.20
2019-03-18T06:06:15.187Z,4.20
2019-03-18T06:11:16.618Z,4.20
2019-03-18T06:16:17.889Z,4.30
2019-03-18T06:21:20.394Z,4.30
2019-03-18T06:26:21.837Z,4.40
2019-03-18T06:31:32.906Z,4.40
2019-03-18T06:36:34.454Z,4.50
2019-03-18T06:41:37.047Z,4.60
2019-03-18T06:46:38.517Z,4.70
2019-03-18T06:51:39.778Z,4.70
2019-03-18T06:56:41.241Z,4.90
2019-03-18T07:01:42.657Z,4.90
2019-03-18T07:06:44.574Z,5.00
2019-03-18T07:11:47.831Z,5.10
2019-03-18T07:16:49.104Z,5.10
2019-03-18T07:27:12.518Z,5.20
2019-03-18T07:32:13.822Z,5.20
2019-03-18T07:37:15.277Z,5.20
2019-03-18T07:42:16.705Z,5.20
2019-03-18T07:47:24.031Z,5.60
2019-03-18T07:52:25.529Z,6.00
2019-03-18T07:57:28.928Z,6.40
2019-03-18T08:02:30.574Z,6.50
2019-03-18T08:07:31.952Z,6.50
2019-03-18T08:12:33.369Z,6.30
2019-03-18T08:17:34.745Z,6.20
2019-03-18T08:22:36.179Z,6.10
2019-03-18T08:27:37.570Z,6.10
2019-03-18T08:32:39.828Z,6.20
2019-03-18T08:37:41.201Z,6.20
2019-03-18T08:42:42.650Z,6.20
2019-03-18T08:47:44.220Z,6.20
2019-03-18T08:52:45.838Z,6.10
2019-03-18T08:57:51.392Z,6.40
2019-03-18T09:02:52.807Z,6.70
2019-03-18T09:07:54.211Z,6.90
2019-03-18T09:12:56.292Z,7.10
2019-03-18T09:17:58.592Z,7.30
2019-03-18T09:23:01.489Z,7.50
2019-03-18T09:28:05.469Z,7.80
2019-03-18T09:33:06.935Z,8.00
2019-03-18T09:38:08.253Z,8.40
2019-03-18T09:43:09.849Z,8.60
2019-03-18T09:48:11.154Z,8.80
2019-03-18T09:53:12.475Z,8.80
2019-03-18T09:58:13.868Z,8.70
2019-03-18T10:03:15.259Z,8.70
2019-03-18T10:08:16.659Z,8.50
2019-03-18T10:13:17.981Z,8.30
2019-03-18T10:18:19.304Z,7.90
2019-03-18T10:23:20.594Z,7.50
2019-03-18T10:28:22.029Z,7.30
2019-03-18T10:33:23.479Z,7.10
2019-03-18T10:38:24.967Z,7.00
2019-03-18T10:43:26.455Z,6.90
2019-03-18T10:48:27.823Z,6.80
2019-03-18T10:53:29.201Z,6.90
2019-03-18T10:58:32.015Z,7.00
2019-03-18T11:03:33.426Z,7.10
2019-03-18T11:08:34.738Z,7.30
2019-03-18T11:13:36.087Z,7.50
2019-03-18T11:18:38.719Z,7.70
2019-03-18T11:23:42.554Z,7.80
2019-03-18T11:28:44.181Z,7.80
2019-03-18T11:33:45.558Z,7.90
2019-03-18T11:38:50.828Z,8.10
2019-03-18T11:43:55.452Z,8.20
2019-03-18T11:48:56.982Z,8.40
2019-03-18T11:53:58.650Z,8.50
2019-03-18T11:59:00.493Z,8.50
2019-03-18T12:04:05.271Z,8.40
2019-03-18T12:09:12.093Z,8.30
2019-03-18T12:14:15.786Z,8.40
2019-03-18T12:19:17.115Z,8.50
2019-03-18T12:24:19.084Z,8.60
2019-03-18T12:29:20.650Z,8.60
2019-03-18T12:34:23.647Z,8.40
2019-03-18T12:39:25.167Z,8.10
2019-03-18T12:44:26.564Z,8.10
2019-03-18T12:49:27.901Z,8.10
2019-03-18T12:54:33.037Z,8.10
2019-03-18T12:59:34.400Z,8.10
2019-03-18T13:04:38.576Z,8.10
2019-03-18T13:09:40.042Z,8.50
2019-03-18T13:14:42.271Z,8.80
2019-03-18T13:19:43.677Z,8.80
2019-03-18T13:24:45.105Z,8.90
2019-03-18T13:29:46.977Z,9.00
2019-03-18T13:34:48.280Z,9.10
2019-03-18T13:39:49.715Z,9.20
2019-03-18T13:44:51.260Z,9.20
2019-03-18T13:49:52.613Z,9.20
2019-03-18T13:54:54.664Z,9.20
2019-03-18T13:59:56.418Z,9.20
2019-03-18T14:04:58.012Z,9.30
2019-03-18T14:09:59.350Z,9.30
2019-03-18T14:15:00.661Z,9.30
2019-03-18T14:20:06.415Z,9.40
2019-03-18T14:25:09.718Z,9.40
2019-03-18T14:30:17.436Z,9.40
2019-03-18T14:35:21.981Z,9.40
2019-03-18T14:40:24.624Z,9.40
2019-03-18T14:45:26.025Z,9.30
2019-03-18T14:50:29.267Z,9.30
2019-03-18T14:55:32.183Z,9.20
2019-03-18T15:00:33.646Z,9.20
2019-03-18T15:05:37.024Z,9.30
2019-03-18T15:10:40.304Z,9.30
2019-03-18T15:15:41.697Z,9.30
2019-03-18T15:20:43.172Z,9.30
2019-03-18T15:25:47.299Z,9.30
2019-03-18T15:30:48.730Z,9.30
2019-03-18T15:35:50.097Z,9.30
2019-03-18T15:40:51.444Z,9.30
2019-03-18T15:45:53.107Z,9.30
2019-03-18T15:50:54.506Z,9.30
2019-03-18T15:55:56.034Z,9.30
2019-03-18T16:00:57.472Z,9.20
2019-03-18T16:05:58.792Z,9.10
2019-03-18T16:11:00.237Z,8.90
2019-03-18T16:16:01.694Z,8.70
2019-03-18T16:21:03.235Z,8.70
2019-03-18T16:26:04.946Z,8.50
2019-03-18T16:31:06.467Z,8.30
2019-03-18T16:36:07.802Z,8.20
2019-03-18T16:41:09.148Z,8.10
2019-03-18T16:46:10.653Z,8.00
2019-03-18T16:51:12.026Z,7.90
2019-03-18T16:56:14.618Z,7.80
2019-03-18T17:01:15.973Z,7.70
2019-03-18T17:06:17.672Z,7.60
2019-03-18T17:11:19.303Z,7.50
2019-03-18T17:16:20.730Z,7.40
2019-03-18T17:21:22.628Z,7.30
2019-03-18T17:26:24.117Z,7.20
2019-03-18T17:31:25.566Z,7.10
2019-03-18T17:36:27.076Z,7.00
2019-03-18T17:41:30.647Z,6.90
2019-03-18T17:46:33.659Z,6.80
2019-03-18T17:51:35.026Z,6.70
2019-03-18T17:56:36.441Z,6.60
2019-03-18T18:01:37.939Z,6.50
2019-03-18T18:06:39.409Z,6.40
2019-03-18T18:11:43.130Z,6.30
2019-03-18T18:17:02.579Z,6.10
2019-03-18T18:22:04.417Z,6.00
2019-03-18T18:27:05.910Z,5.90
2019-03-18T18:32:07.348Z,5.80
2019-03-18T18:37:08.812Z,5.60
2019-03-18T18:42:10.337Z,5.50
2019-03-18T18:47:11.793Z,5.40
2019-03-18T18:52:13.209Z,5.40
2019-03-18T18:57:16.394Z,5.30
2019-03-18T19:02:17.923Z,5.20
2019-03-18T19:07:19.474Z,5.00
2019-03-18T19:12:20.977Z,4.90
2019-03-18T19:17:22.712Z,4.80
2019-03-18T19:22:24.273Z,4.70
2019-03-18T19:27:25.610Z,4.60
2019-03-18T19:32:27.159Z,4.60
2019-03-18T19:37:28.639Z,4.40
2019-03-18T19:42:30.139Z,4.20
2019-03-18T19:47:31.696Z,4.10
2019-03-18T19:52:33.187Z,4.00
2019-03-18T19:57:34.561Z,3.80
2019-03-18T20:02:36.090Z,3.70
2019-03-18T20:07:38.858Z,3.70
2019-03-18T20:12:40.712Z,3.50
2019-03-18T20:17:42.564Z,3.50
2019-03-18T20:22:44.286Z,3.40
2019-03-18T20:33:05.476Z,3.20
2019-03-18T20:38:07.197Z,3.00
2019-03-18T20:48:28.281Z,2.80
2019-03-18T20:53:31.637Z,2.70
2019-03-18T20:58:36.106Z,2.60
2019-03-18T21:03:38.155Z,2.50
2019-03-18T21:08:39.616Z,2.40
2019-03-18T21:13:41.140Z,2.30
2019-03-18T21:18:44.051Z,2.20
2019-03-18T21:23:46.262Z,2.10
2019-03-18T21:28:47.878Z,2.10
2019-03-18T21:33:49.548Z,2.00
2019-03-18T21:38:50.962Z,1.90
2019-03-18T21:43:52.403Z,1.90
2019-03-18T21:48:53.969Z,1.80
2019-03-18T21:53:55.497Z,1.70
2019-03-18T21:58:56.835Z,1.70
2019-03-18T22:03:58.181Z,1.60
2019-03-18T22:08:59.719Z,1.50
2019-03-18T22:14:02.286Z,1.50
2019-03-18T22:24:23.398Z,1.40
2019-03-18T22:29:25.493Z,1.30
2019-03-18T22:34:26.877Z,1.30
2019-03-18T22:39:28.430Z,1.30
2019-03-18T22:44:29.746Z,1.20
2019-03-18T22:49:31.060Z,1.20
2019-03-18T22:54:32.963Z,1.10
2019-03-18T22:59:34.453Z,1.10
2019-03-18T23:04:35.902Z,1.10
2019-03-18T23:09:39.538Z,1.10
2019-03-18T23:14:41.375Z,1.00
2019-03-18T23:19:43.230Z,1.00
2019-03-18T23:24:44.909Z,0.90
2019-03-18T23:29:46.885Z,0.90
2019-03-18T23:34:48.828Z,0.80
2019-03-18T23:39:50.452Z,0.80
2019-03-18T23:44:53.843Z,0.80
2019-03-18T23:49:55.261Z,0.80
2019-03-18T23:54:56.805Z,0.80
2019-03-18T23:59:58.579Z,0.90
